sensor_id;sensor_type;location;lat;lon;timestamp;P1;durP1;ratioP1;P2;durP2;ratioP2
69706;SDS011;56975;55.726;37.566;2023-07-09T00:00:00;22.4;;;9.5;;
69706;SDS011;56975;55.726;37.566;2023-07-09T00:05:00;16.9;;;8.2;;
69706;SDS011;56975;55.726;37.566;2023-07-09T00:10:00;25.1;;;8.7;;
69706;SDS011;56975;55.726;37.566;2023-07-09T00:15:00;18.8;;;8.5;;
69706;SDS011;56975;55.726;37.566;2023-07-09T00:20:00;20.9;;;9.2;;
69706;SDS011;56975;55.726;37.566;2023-07-09T00:25:00;22.3;;;10.1;;
69706;SDS011;56975;55.726;37.566;2023-07-09T00:30:00;22.3;;;9.2;;
69706;SDS011;56975;55.726;37.566;2023-07-09T00:35:00;19.9;;;9.5;;
69706;SDS011;56975;55.726;37.566;2023-07-09T00:40:00;16.2;;;8.8;;
69706;SDS011;56975;55.726;37.566;2023-07-09T00:45:00;17.9;;;9.1;;
69706;SDS011;56975;55.726;37.566;2023-07-09T00:50:03;28.7;;;10.3;;
69706;SDS011;56975;55.726;37.566;2023-07-09T00:55:00;18.2;;;9.7;;
69706;SDS011;56975;55.726;37.566;2023-07-09T01:00:02;20.9;;;9.7;;
69706;SDS011;56975;55.726;37.566;2023-07-09T01:05:00;19.0;;;9.5;;
69706;SDS011;56975;55.726;37.566;2023-07-09T01:10:00;22.9;;;10.2;;
69706;SDS011;56975;55.726;37.566;2023-07-09T01:15:00;26.3;;;10.3;;
69706;SDS011;56975;55.726;37.566;2023-07-09T01:20:00;26.5;;;11.4;;
69706;SDS011;56975;55.726;37.566;2023-07-09T01:25:02;20.8;;;11.3;;
69706;SDS011;56975;55.726;37.566;2023-07-09T01:40:00;25.2;;;11.0;;
69706;SDS011;56975;55.726;37.566;2023-07-09T01:45:00;20.9;;;10.3;;
69706;SDS011;56975;55.726;37.566;2023-07-09T01:50:00;23.5;;;11.1;;
69706;SDS011;56975;55.726;37.566;2023-07-09T01:55:00;19.6;;;11.0;;
69706;SDS011;56975;55.726;37.566;2023-07-09T02:00:00;23.0;;;11.1;;
69706;SDS011;56975;55.726;37.566;2023-07-09T02:05:00;21.5;;;11.0;;
69706;SDS011;56975;55.726;37.566;2023-07-09T02:10:00;23.6;;;11.0;;
69706;SDS011;56975;55.726;37.566;2023-07-09T02:15:00;20.3;;;11.2;;
69706;SDS011;56975;55.726;37.566;2023-07-09T02:20:00;21.9;;;11.9;;
69706;SDS011;56975;55.726;37.566;2023-07-09T02:25:00;22.1;;;11.0;;
69706;SDS011;56975;55.726;37.566;2023-07-09T02:30:00;24.4;;;11.0;;
69706;SDS011;56975;55.726;37.566;2023-07-09T02:35:00;23.6;;;11.0;;
69706;SDS011;56975;55.726;37.566;2023-07-09T02:40:00;22.2;;;11.4;;
69706;SDS011;56975;55.726;37.566;2023-07-09T02:45:00;23.0;;;11.5;;
69706;SDS011;56975;55.726;37.566;2023-07-09T02:50:00;20.7;;;11.8;;
69706;SDS011;56975;55.726;37.566;2023-07-09T02:55:00;24.0;;;11.8;;
69706;SDS011;56975;55.726;37.566;2023-07-09T03:00:00;25.2;;;11.4;;
69706;SDS011;56975;55.726;37.566;2023-07-09T03:05:00;20.0;;;11.1;;
69706;SDS011;56975;55.726;37.566;2023-07-09T03:10:00;27.9;;;11.5;;
69706;SDS011;56975;55.726;37.566;2023-07-09T03:15:00;25.0;;;11.1;;
69706;SDS011;56975;55.726;37.566;2023-07-09T03:20:00;21.1;;;10.7;;
69706;SDS011;56975;55.726;37.566;2023-07-09T03:25:00;24.0;;;11.3;;
69706;SDS011;56975;55.726;37.566;2023-07-09T03:30:00;24.9;;;11.0;;
69706;SDS011;56975;55.726;37.566;2023-07-09T03:35:00;22.3;;;11.5;;
69706;SDS011;56975;55.726;37.566;2023-07-09T03:40:00;23.3;;;11.1;;
69706;SDS011;56975;55.726;37.566;2023-07-09T03:45:00;23.3;;;11.3;;
69706;SDS011;56975;55.726;37.566;2023-07-09T03:50:00;20.7;;;11.6;;
69706;SDS011;56975;55.726;37.566;2023-07-09T03:55:00;25.5;;;12.0;;
69706;SDS011;56975;55.726;37.566;2023-07-09T04:00:00;21.8;;;10.5;;
69706;SDS011;56975;55.726;37.566;2023-07-09T04:05:00;19.8;;;10.5;;
69706;SDS011;56975;55.726;37.566;2023-07-09T04:10:00;19.0;;;10.5;;
69706;SDS011;56975;55.726;37.566;2023-07-09T04:15:00;23.0;;;10.8;;
69706;SDS011;56975;55.726;37.566;2023-07-09T04:20:00;22.2;;;10.2;;
69706;SDS011;56975;55.726;37.566;2023-07-09T04:25:00;20.1;;;9.9;;
69706;SDS011;56975;55.726;37.566;2023-07-09T04:30:00;16.5;;;9.3;;
69706;SDS011;56975;55.726;37.566;2023-07-09T04:35:00;16.3;;;8.9;;
69706;SDS011;56975;55.726;37.566;2023-07-09T04:40:00;16.4;;;8.8;;
69706;SDS011;56975;55.726;37.566;2023-07-09T04:45:00;16.8;;;8.8;;
69706;SDS011;56975;55.726;37.566;2023-07-09T04:50:00;14.8;;;7.2;;
69706;SDS011;56975;55.726;37.566;2023-07-09T04:55:00;12.9;;;6.5;;
69706;SDS011;56975;55.726;37.566;2023-07-09T05:00:00;7.9;;;4.0;;
69706;SDS011;56975;55.726;37.566;2023-07-09T05:05:00;6.7;;;3.4;;
69706;SDS011;56975;55.726;37.566;2023-07-09T05:10:00;5.5;;;3.4;;
69706;SDS011;56975;55.726;37.566;2023-07-09T05:15:00;5.6;;;3.0;;
69706;SDS011;56975;55.726;37.566;2023-07-09T05:20:00;5.7;;;2.8;;
69706;SDS011;56975;55.726;37.566;2023-07-09T05:25:00;5.6;;;2.8;;
69706;SDS011;56975;55.726;37.566;2023-07-09T05:30:00;6.5;;;2.7;;
69706;SDS011;56975;55.726;37.566;2023-07-09T05:35:00;4.6;;;2.5;;
69706;SDS011;56975;55.726;37.566;2023-07-09T05:40:00;4.8;;;2.2;;
69706;SDS011;56975;55.726;37.566;2023-07-09T05:45:00;6.3;;;2.5;;
69706;SDS011;56975;55.726;37.566;2023-07-09T05:50:00;5.8;;;2.6;;
69706;SDS011;56975;55.726;37.566;2023-07-09T05:55:00;4.9;;;2.3;;
69706;SDS011;56975;55.726;37.566;2023-07-09T06:00:00;5.2;;;2.8;;
69706;SDS011;56975;55.726;37.566;2023-07-09T06:05:00;5.7;;;2.7;;
69706;SDS011;56975;55.726;37.566;2023-07-09T06:10:00;3.9;;;2.5;;
69706;SDS011;56975;55.726;37.566;2023-07-09T06:15:00;4.8;;;2.4;;
69706;SDS011;56975;55.726;37.566;2023-07-09T06:20:00;4.7;;;2.6;;
69706;SDS011;56975;55.726;37.566;2023-07-09T06:25:00;4.7;;;2.8;;
69706;SDS011;56975;55.726;37.566;2023-07-09T06:30:00;9.9;;;6.5;;
69706;SDS011;56975;55.726;37.566;2023-07-09T06:35:00;4.6;;;2.9;;
69706;SDS011;56975;55.726;37.566;2023-07-09T06:40:00;6.2;;;3.0;;
69706;SDS011;56975;55.726;37.566;2023-07-09T06:45:00;6.6;;;2.8;;
69706;SDS011;56975;55.726;37.566;2023-07-09T06:50:00;5.5;;;2.8;;
69706;SDS011;56975;55.726;37.566;2023-07-09T06:55:00;16.1;;;10.2;;
69706;SDS011;56975;55.726;37.566;2023-07-09T07:00:00;7.1;;;3.0;;
69706;SDS011;56975;55.726;37.566;2023-07-09T07:05:00;9.1;;;2.8;;
69706;SDS011;56975;55.726;37.566;2023-07-09T07:10:00;8.4;;;3.1;;
69706;SDS011;56975;55.726;37.566;2023-07-09T07:15:00;5.3;;;3.2;;
69706;SDS011;56975;55.726;37.566;2023-07-09T07:20:00;6.5;;;2.7;;
69706;SDS011;56975;55.726;37.566;2023-07-09T07:25:00;6.6;;;2.9;;
69706;SDS011;56975;55.726;37.566;2023-07-09T07:30:00;6.0;;;2.3;;
69706;SDS011;56975;55.726;37.566;2023-07-09T07:35:00;5.6;;;2.5;;
69706;SDS011;56975;55.726;37.566;2023-07-09T07:45:00;6.3;;;2.6;;
69706;SDS011;56975;55.726;37.566;2023-07-09T07:50:00;8.2;;;2.7;;
69706;SDS011;56975;55.726;37.566;2023-07-09T07:55:00;4.8;;;2.3;;
69706;SDS011;56975;55.726;37.566;2023-07-09T08:00:00;3.9;;;2.2;;
69706;SDS011;56975;55.726;37.566;2023-07-09T08:05:00;7.5;;;2.5;;
69706;SDS011;56975;55.726;37.566;2023-07-09T08:10:00;6.4;;;2.3;;
69706;SDS011;56975;55.726;37.566;2023-07-09T08:15:00;5.6;;;2.2;;
69706;SDS011;56975;55.726;37.566;2023-07-09T08:20:00;6.1;;;3.0;;
69706;SDS011;56975;55.726;37.566;2023-07-09T08:25:00;4.5;;;2.4;;
69706;SDS011;56975;55.726;37.566;2023-07-09T08:30:00;7.6;;;4.6;;
69706;SDS011;56975;55.726;37.566;2023-07-09T08:35:00;8.3;;;5.4;;
69706;SDS011;56975;55.726;37.566;2023-07-09T08:40:00;7.5;;;2.6;;
69706;SDS011;56975;55.726;37.566;2023-07-09T08:45:02;5.9;;;3.0;;
69706;SDS011;56975;55.726;37.566;2023-07-09T08:50:00;5.5;;;2.8;;
69706;SDS011;56975;55.726;37.566;2023-07-09T08:55:01;6.3;;;2.7;;
69706;SDS011;56975;55.726;37.566;2023-07-09T09:00:02;5.0;;;2.8;;
69706;SDS011;56975;55.726;37.566;2023-07-09T09:05:00;4.5;;;2.8;;
69706;SDS011;56975;55.726;37.566;2023-07-09T09:10:00;6.7;;;2.8;;
69706;SDS011;56975;55.726;37.566;2023-07-09T09:15:01;5.7;;;2.8;;
69706;SDS011;56975;55.726;37.566;2023-07-09T09:20:01;5.2;;;2.8;;
69706;SDS011;56975;55.726;37.566;2023-07-09T09:25:02;4.6;;;2.7;;
69706;SDS011;56975;55.726;37.566;2023-07-09T09:30:00;10.8;;;5.8;;
69706;SDS011;56975;55.726;37.566;2023-07-09T09:35:10;8.0;;;3.3;;
69706;SDS011;56975;55.726;37.566;2023-07-09T09:40:00;5.2;;;3.2;;
69706;SDS011;56975;55.726;37.566;2023-07-09T09:45:00;6.2;;;3.8;;
69706;SDS011;56975;55.726;37.566;2023-07-09T09:50:00;4.8;;;3.1;;
69706;SDS011;56975;55.726;37.566;2023-07-09T09:55:02;9.2;;;3.4;;
69706;SDS011;56975;55.726;37.566;2023-07-09T10:00:00;6.2;;;3.3;;
69706;SDS011;56975;55.726;37.566;2023-07-09T10:05:00;5.1;;;2.7;;
69706;SDS011;56975;55.726;37.566;2023-07-09T10:10:00;7.0;;;3.2;;
69706;SDS011;56975;55.726;37.566;2023-07-09T10:15:01;4.3;;;3.1;;
69706;SDS011;56975;55.726;37.566;2023-07-09T10:20:02;5.9;;;4.4;;
69706;SDS011;56975;55.726;37.566;2023-07-09T10:25:01;11.6;;;5.6;;
69706;SDS011;56975;55.726;37.566;2023-07-09T10:30:03;6.1;;;2.6;;
69706;SDS011;56975;55.726;37.566;2023-07-09T10:35:00;5.5;;;2.7;;
69706;SDS011;56975;55.726;37.566;2023-07-09T10:40:00;5.0;;;2.7;;
69706;SDS011;56975;55.726;37.566;2023-07-09T10:45:01;6.2;;;3.0;;
69706;SDS011;56975;55.726;37.566;2023-07-09T10:50:00;5.9;;;3.2;;
69706;SDS011;56975;55.726;37.566;2023-07-09T10:55:02;5.4;;;2.9;;
69706;SDS011;56975;55.726;37.566;2023-07-09T11:00:00;9.4;;;3.5;;
69706;SDS011;56975;55.726;37.566;2023-07-09T11:05:00;6.3;;;2.7;;
69706;SDS011;56975;55.726;37.566;2023-07-09T11:10:01;8.2;;;3.3;;
69706;SDS011;56975;55.726;37.566;2023-07-09T11:15:01;5.5;;;2.5;;
69706;SDS011;56975;55.726;37.566;2023-07-09T11:20:00;7.7;;;3.6;;
69706;SDS011;56975;55.726;37.566;2023-07-09T11:25:05;6.8;;;3.6;;
69706;SDS011;56975;55.726;37.566;2023-07-09T11:30:01;6.4;;;3.1;;
69706;SDS011;56975;55.726;37.566;2023-07-09T11:35:08;4.3;;;2.9;;
69706;SDS011;56975;55.726;37.566;2023-07-09T11:40:04;6.3;;;2.7;;
69706;SDS011;56975;55.726;37.566;2023-07-09T11:45:02;5.0;;;3.0;;
69706;SDS011;56975;55.726;37.566;2023-07-09T11:50:01;7.4;;;2.8;;
69706;SDS011;56975;55.726;37.566;2023-07-09T11:55:02;8.8;;;5.1;;
69706;SDS011;56975;55.726;37.566;2023-07-09T12:00:00;5.5;;;3.1;;
69706;SDS011;56975;55.726;37.566;2023-07-09T12:05:00;7.9;;;3.2;;
69706;SDS011;56975;55.726;37.566;2023-07-09T12:10:00;5.3;;;2.8;;
69706;SDS011;56975;55.726;37.566;2023-07-09T12:15:04;8.6;;;4.4;;
69706;SDS011;56975;55.726;37.566;2023-07-09T12:20:00;5.9;;;2.7;;
69706;SDS011;56975;55.726;37.566;2023-07-09T12:25:00;6.0;;;3.2;;
69706;SDS011;56975;55.726;37.566;2023-07-09T12:30:00;5.3;;;3.6;;
69706;SDS011;56975;55.726;37.566;2023-07-09T12:35:00;6.1;;;3.3;;
69706;SDS011;56975;55.726;37.566;2023-07-09T12:40:00;6.8;;;2.6;;
69706;SDS011;56975;55.726;37.566;2023-07-09T12:45:00;5.5;;;2.7;;
69706;SDS011;56975;55.726;37.566;2023-07-09T12:50:01;9.5;;;3.0;;
69706;SDS011;56975;55.726;37.566;2023-07-09T12:55:01;4.9;;;2.5;;
69706;SDS011;56975;55.726;37.566;2023-07-09T13:00:00;10.0;;;3.3;;
69706;SDS011;56975;55.726;37.566;2023-07-09T13:05:00;4.8;;;3.6;;
69706;SDS011;56975;55.726;37.566;2023-07-09T13:10:05;6.9;;;3.6;;
69706;SDS011;56975;55.726;37.566;2023-07-09T13:15:00;6.7;;;3.6;;
69706;SDS011;56975;55.726;37.566;2023-07-09T13:20:00;5.6;;;3.4;;
69706;SDS011;56975;55.726;37.566;2023-07-09T13:25:00;4.9;;;3.1;;
69706;SDS011;56975;55.726;37.566;2023-07-09T13:30:00;6.6;;;2.8;;
69706;SDS011;56975;55.726;37.566;2023-07-09T13:35:00;5.3;;;3.1;;
69706;SDS011;56975;55.726;37.566;2023-07-09T13:40:00;5.4;;;3.0;;
69706;SDS011;56975;55.726;37.566;2023-07-09T13:45:00;5.5;;;3.0;;
69706;SDS011;56975;55.726;37.566;2023-07-09T13:50:00;7.8;;;3.5;;
69706;SDS011;56975;55.726;37.566;2023-07-09T13:55:00;7.1;;;3.4;;
69706;SDS011;56975;55.726;37.566;2023-07-09T14:00:00;5.4;;;3.5;;
69706;SDS011;56975;55.726;37.566;2023-07-09T14:05:00;5.5;;;3.7;;
69706;SDS011;56975;55.726;37.566;2023-07-09T14:10:00;8.1;;;3.5;;
69706;SDS011;56975;55.726;37.566;2023-07-09T14:15:00;6.8;;;3.1;;
69706;SDS011;56975;55.726;37.566;2023-07-09T14:20:00;5.8;;;2.8;;
69706;SDS011;56975;55.726;37.566;2023-07-09T14:25:00;5.3;;;3.2;;
69706;SDS011;56975;55.726;37.566;2023-07-09T14:30:00;6.7;;;3.0;;
69706;SDS011;56975;55.726;37.566;2023-07-09T14:35:00;5.3;;;2.9;;
69706;SDS011;56975;55.726;37.566;2023-07-09T14:40:00;4.7;;;2.6;;
69706;SDS011;56975;55.726;37.566;2023-07-09T14:45:00;5.3;;;2.6;;
69706;SDS011;56975;55.726;37.566;2023-07-09T14:50:00;6.8;;;3.8;;
69706;SDS011;56975;55.726;37.566;2023-07-09T14:55:00;6.7;;;2.8;;
69706;SDS011;56975;55.726;37.566;2023-07-09T15:00:00;5.5;;;2.6;;
69706;SDS011;56975;55.726;37.566;2023-07-09T15:05:00;5.1;;;2.6;;
69706;SDS011;56975;55.726;37.566;2023-07-09T15:10:00;5.3;;;2.8;;
69706;SDS011;56975;55.726;37.566;2023-07-09T15:15:03;5.0;;;3.3;;
69706;SDS011;56975;55.726;37.566;2023-07-09T15:20:00;6.2;;;2.8;;
69706;SDS011;56975;55.726;37.566;2023-07-09T15:25:00;5.4;;;2.9;;
69706;SDS011;56975;55.726;37.566;2023-07-09T15:30:00;4.5;;;2.9;;
69706;SDS011;56975;55.726;37.566;2023-07-09T15:35:00;6.0;;;2.9;;
69706;SDS011;56975;55.726;37.566;2023-07-09T15:40:00;8.8;;;3.6;;
69706;SDS011;56975;55.726;37.566;2023-07-09T15:45:00;6.8;;;2.6;;
69706;SDS011;56975;55.726;37.566;2023-07-09T15:50:00;5.6;;;2.7;;
69706;SDS011;56975;55.726;37.566;2023-07-09T15:55:00;6.4;;;3.9;;
69706;SDS011;56975;55.726;37.566;2023-07-09T16:00:00;7.3;;;3.7;;
69706;SDS011;56975;55.726;37.566;2023-07-09T16:05:00;4.9;;;2.4;;
69706;SDS011;56975;55.726;37.566;2023-07-09T16:10:00;6.4;;;3.4;;
69706;SDS011;56975;55.726;37.566;2023-07-09T16:15:00;9.5;;;2.8;;
69706;SDS011;56975;55.726;37.566;2023-07-09T16:20:00;6.8;;;3.4;;
69706;SDS011;56975;55.726;37.566;2023-07-09T16:25:00;6.7;;;3.0;;
69706;SDS011;56975;55.726;37.566;2023-07-09T16:30:00;6.2;;;3.1;;
69706;SDS011;56975;55.726;37.566;2023-07-09T16:35:00;6.1;;;2.7;;
69706;SDS011;56975;55.726;37.566;2023-07-09T16:40:00;5.0;;;2.5;;
69706;SDS011;56975;55.726;37.566;2023-07-09T16:45:00;5.6;;;2.8;;
69706;SDS011;56975;55.726;37.566;2023-07-09T16:50:00;6.4;;;3.0;;
69706;SDS011;56975;55.726;37.566;2023-07-09T16:55:00;5.3;;;3.1;;
69706;SDS011;56975;55.726;37.566;2023-07-09T17:00:12;7.4;;;3.7;;
69706;SDS011;56975;55.726;37.566;2023-07-09T17:05:01;5.7;;;2.7;;
69706;SDS011;56975;55.726;37.566;2023-07-09T17:10:00;5.2;;;2.6;;
69706;SDS011;56975;55.726;37.566;2023-07-09T17:15:00;7.3;;;2.7;;
69706;SDS011;56975;55.726;37.566;2023-07-09T17:20:00;8.4;;;2.7;;
69706;SDS011;56975;55.726;37.566;2023-07-09T17:25:00;6.3;;;2.7;;
69706;SDS011;56975;55.726;37.566;2023-07-09T17:30:00;4.2;;;2.5;;
69706;SDS011;56975;55.726;37.566;2023-07-09T17:35:00;7.2;;;2.3;;
69706;SDS011;56975;55.726;37.566;2023-07-09T17:40:00;4.8;;;2.9;;
69706;SDS011;56975;55.726;37.566;2023-07-09T17:45:00;7.3;;;2.3;;
69706;SDS011;56975;55.726;37.566;2023-07-09T17:50:00;4.2;;;2.3;;
69706;SDS011;56975;55.726;37.566;2023-07-09T17:55:00;6.5;;;2.4;;
69706;SDS011;56975;55.726;37.566;2023-07-09T18:00:00;5.4;;;2.5;;
69706;SDS011;56975;55.726;37.566;2023-07-09T18:05:00;6.1;;;2.4;;
69706;SDS011;56975;55.726;37.566;2023-07-09T18:10:00;5.7;;;2.5;;
69706;SDS011;56975;55.726;37.566;2023-07-09T18:15:00;4.6;;;2.2;;
69706;SDS011;56975;55.726;37.566;2023-07-09T18:20:00;4.5;;;2.2;;
69706;SDS011;56975;55.726;37.566;2023-07-09T18:25:00;5.8;;;2.7;;
69706;SDS011;56975;55.726;37.566;2023-07-09T18:30:00;6.9;;;2.9;;
69706;SDS011;56975;55.726;37.566;2023-07-09T18:35:00;5.0;;;2.2;;
69706;SDS011;56975;55.726;37.566;2023-07-09T18:40:00;4.6;;;2.2;;
69706;SDS011;56975;55.726;37.566;2023-07-09T18:45:00;4.8;;;2.9;;
69706;SDS011;56975;55.726;37.566;2023-07-09T18:50:00;4.7;;;2.0;;
69706;SDS011;56975;55.726;37.566;2023-07-09T18:55:00;5.0;;;1.9;;
69706;SDS011;56975;55.726;37.566;2023-07-09T19:00:00;6.7;;;2.1;;
69706;SDS011;56975;55.726;37.566;2023-07-09T19:05:00;4.7;;;2.1;;
69706;SDS011;56975;55.726;37.566;2023-07-09T19:10:00;5.1;;;2.1;;
69706;SDS011;56975;55.726;37.566;2023-07-09T19:15:00;4.5;;;2.2;;
69706;SDS011;56975;55.726;37.566;2023-07-09T19:20:00;7.4;;;2.4;;
69706;SDS011;56975;55.726;37.566;2023-07-09T19:25:00;6.8;;;2.2;;
69706;SDS011;56975;55.726;37.566;2023-07-09T19:30:00;3.9;;;2.0;;
69706;SDS011;56975;55.726;37.566;2023-07-09T19:35:00;4.8;;;2.2;;
69706;SDS011;56975;55.726;37.566;2023-07-09T19:40:00;3.1;;;1.7;;
69706;SDS011;56975;55.726;37.566;2023-07-09T19:45:00;4.0;;;1.9;;
69706;SDS011;56975;55.726;37.566;2023-07-09T19:50:00;3.2;;;1.6;;
69706;SDS011;56975;55.726;37.566;2023-07-09T19:55:00;4.0;;;2.1;;
69706;SDS011;56975;55.726;37.566;2023-07-09T20:00:00;5.4;;;1.9;;
69706;SDS011;56975;55.726;37.566;2023-07-09T20:05:00;5.1;;;2.1;;
69706;SDS011;56975;55.726;37.566;2023-07-09T20:10:00;5.4;;;2.5;;
69706;SDS011;56975;55.726;37.566;2023-07-09T20:15:00;4.6;;;2.5;;
69706;SDS011;56975;55.726;37.566;2023-07-09T20:20:00;4.7;;;2.9;;
69706;SDS011;56975;55.726;37.566;2023-07-09T20:25:00;3.3;;;2.0;;
69706;SDS011;56975;55.726;37.566;2023-07-09T20:30:00;7.1;;;2.2;;
69706;SDS011;56975;55.726;37.566;2023-07-09T20:35:00;4.0;;;1.9;;
69706;SDS011;56975;55.726;37.566;2023-07-09T20:40:00;5.0;;;2.4;;
69706;SDS011;56975;55.726;37.566;2023-07-09T20:45:00;6.6;;;2.0;;
69706;SDS011;56975;55.726;37.566;2023-07-09T20:50:00;4.9;;;2.8;;
69706;SDS011;56975;55.726;37.566;2023-07-09T20:55:00;4.5;;;1.9;;
69706;SDS011;56975;55.726;37.566;2023-07-09T21:00:00;5.2;;;2.1;;
69706;SDS011;56975;55.726;37.566;2023-07-09T21:05:00;8.3;;;2.5;;
69706;SDS011;56975;55.726;37.566;2023-07-09T21:10:00;8.3;;;2.5;;
69706;SDS011;56975;55.726;37.566;2023-07-09T21:15:00;4.6;;;2.2;;
69706;SDS011;56975;55.726;37.566;2023-07-09T21:20:00;6.8;;;2.2;;
69706;SDS011;56975;55.726;37.566;2023-07-09T21:25:02;8.2;;;2.2;;
69706;SDS011;56975;55.726;37.566;2023-07-09T21:30:00;4.9;;;2.3;;
69706;SDS011;56975;55.726;37.566;2023-07-09T21:35:00;5.0;;;2.6;;
69706;SDS011;56975;55.726;37.566;2023-07-09T21:40:00;6.7;;;2.6;;
69706;SDS011;56975;55.726;37.566;2023-07-09T21:45:00;7.4;;;2.6;;
69706;SDS011;56975;55.726;37.566;2023-07-09T21:50:00;6.6;;;2.2;;
69706;SDS011;56975;55.726;37.566;2023-07-09T21:55:00;6.0;;;2.5;;
69706;SDS011;56975;55.726;37.566;2023-07-09T22:00:00;5.9;;;2.5;;
69706;SDS011;56975;55.726;37.566;2023-07-09T22:05:00;6.2;;;2.6;;
69706;SDS011;56975;55.726;37.566;2023-07-09T22:10:00;3.7;;;2.0;;
69706;SDS011;56975;55.726;37.566;2023-07-09T22:15:00;4.7;;;2.5;;
69706;SDS011;56975;55.726;37.566;2023-07-09T22:20:00;7.1;;;2.9;;
69706;SDS011;56975;55.726;37.566;2023-07-09T22:25:00;9.9;;;3.8;;
69706;SDS011;56975;55.726;37.566;2023-07-09T22:30:00;6.8;;;3.9;;
69706;SDS011;56975;55.726;37.566;2023-07-09T22:35:01;9.7;;;4.1;;
69706;SDS011;56975;55.726;37.566;2023-07-09T22:40:10;7.5;;;4.2;;
69706;SDS011;56975;55.726;37.566;2023-07-09T22:45:00;7.2;;;3.9;;
69706;SDS011;56975;55.726;37.566;2023-07-09T22:50:00;8.9;;;4.2;;
69706;SDS011;56975;55.726;37.566;2023-07-09T22:55:00;7.2;;;4.1;;
69706;SDS011;56975;55.726;37.566;2023-07-09T23:00:00;4.7;;;3.1;;
69706;SDS011;56975;55.726;37.566;2023-07-09T23:05:00;5.4;;;3.7;;
69706;SDS011;56975;55.726;37.566;2023-07-09T23:10:00;8.3;;;3.5;;
69706;SDS011;56975;55.726;37.566;2023-07-09T23:15:00;6.2;;;3.7;;
69706;SDS011;56975;55.726;37.566;2023-07-09T23:20:00;7.8;;;3.7;;
69706;SDS011;56975;55.726;37.566;2023-07-09T23:25:00;10.1;;;4.3;;
69706;SDS011;56975;55.726;37.566;2023-07-09T23:30:00;7.2;;;4.2;;
69706;SDS011;56975;55.726;37.566;2023-07-09T23:35:00;8.5;;;4.4;;
69706;SDS011;56975;55.726;37.566;2023-07-09T23:40:00;6.1;;;4.1;;
69706;SDS011;56975;55.726;37.566;2023-07-09T23:45:00;7.1;;;4.6;;
69706;SDS011;56975;55.726;37.566;2023-07-09T23:50:00;6.4;;;4.0;;
69706;SDS011;56975;55.726;37.566;2023-07-09T23:55:00;9.5;;;4.1;;
